EGPJ weather

Fife Airport
Scotland, United Kingdom

Public forecast

Using degrees Celsius for public forecast. Weather courtesy of forecast.io.

METAR (pilot weather report)

Closest report is Edinburgh Airport, 14.9 nm (27.6 km) SSW. Retrieved 2019/09/18 07:50 UTC (21 minutes ago):

EGPH 180750Z 22006KT 9999 BKN023 11/07 Q1029

TAF (pilot weather forecast)

Forecast is more than 12 hours old.

Closest forecast is Edinburgh Airport, 14.9 nm (27.6 km) SSW. Retrieved 2019/09/17 00:00 UTC (1 day ago):

TAF EGPH 172301Z 1800/1824 24006KT 9999 FEW040 PROB30 TEMPO 1812/1824 BKN012